sensor_id;sensor_type;location;lat;lon;timestamp;temperature;humidity
49224;DHT22;35050;51.316;5.994;2024-03-22T00:01:40;12.60;99.90
49224;DHT22;35050;51.316;5.994;2024-03-22T00:04:06;12.60;99.90
49224;DHT22;35050;51.316;5.994;2024-03-22T00:06:31;12.60;99.90
49224;DHT22;35050;51.316;5.994;2024-03-22T00:08:57;12.60;99.90
49224;DHT22;35050;51.316;5.994;2024-03-22T00:11:23;12.60;99.90
49224;DHT22;35050;51.316;5.994;2024-03-22T00:13:48;12.70;99.90
49224;DHT22;35050;51.316;5.994;2024-03-22T00:16:14;12.60;99.90
49224;DHT22;35050;51.316;5.994;2024-03-22T00:18:39;12.70;99.90
49224;DHT22;35050;51.316;5.994;2024-03-22T00:21:05;12.60;99.90
49224;DHT22;35050;51.316;5.994;2024-03-22T00:23:30;12.60;99.90
49224;DHT22;35050;51.316;5.994;2024-03-22T00:25:56;12.60;99.90
49224;DHT22;35050;51.316;5.994;2024-03-22T00:28:22;12.60;99.90
49224;DHT22;35050;51.316;5.994;2024-03-22T00:30:47;12.50;99.90
49224;DHT22;35050;51.316;5.994;2024-03-22T00:33:13;12.50;99.90
49224;DHT22;35050;51.316;5.994;2024-03-22T00:35:39;12.60;99.90
49224;DHT22;35050;51.316;5.994;2024-03-22T00:38:04;12.60;99.90
49224;DHT22;35050;51.316;5.994;2024-03-22T00:40:30;12.60;99.90
49224;DHT22;35050;51.316;5.994;2024-03-22T00:42:55;12.60;99.90
49224;DHT22;35050;51.316;5.994;2024-03-22T00:45:21;12.60;99.90
49224;DHT22;35050;51.316;5.994;2024-03-22T00:47:47;12.70;99.90
49224;DHT22;35050;51.316;5.994;2024-03-22T00:50:12;12.60;99.90
49224;DHT22;35050;51.316;5.994;2024-03-22T00:52:38;12.50;99.90
49224;DHT22;35050;51.316;5.994;2024-03-22T00:55:04;12.70;99.90
49224;DHT22;35050;51.316;5.994;2024-03-22T00:57:30;12.70;99.90
49224;DHT22;35050;51.316;5.994;2024-03-22T00:59:56;12.70;99.90
49224;DHT22;35050;51.316;5.994;2024-03-22T01:02:22;12.70;99.90
49224;DHT22;35050;51.316;5.994;2024-03-22T01:04:48;12.60;99.90
49224;DHT22;35050;51.316;5.994;2024-03-22T01:07:14;12.70;99.90
49224;DHT22;35050;51.316;5.994;2024-03-22T01:09:39;12.70;99.90
49224;DHT22;35050;51.316;5.994;2024-03-22T01:12:05;12.80;99.90
49224;DHT22;35050;51.316;5.994;2024-03-22T01:14:31;12.80;99.90
49224;DHT22;35050;51.316;5.994;2024-03-22T01:16:57;12.70;99.90
49224;DHT22;35050;51.316;5.994;2024-03-22T01:19:22;12.70;99.90
49224;DHT22;35050;51.316;5.994;2024-03-22T01:21:48;12.70;99.90
49224;DHT22;35050;51.316;5.994;2024-03-22T01:24:14;12.70;99.90
49224;DHT22;35050;51.316;5.994;2024-03-22T01:26:40;12.70;99.90
49224;DHT22;35050;51.316;5.994;2024-03-22T01:29:05;12.70;99.90
49224;DHT22;35050;51.316;5.994;2024-03-22T01:31:31;12.70;99.90
49224;DHT22;35050;51.316;5.994;2024-03-22T01:33:57;12.70;99.90
49224;DHT22;35050;51.316;5.994;2024-03-22T01:36:22;12.70;99.90
49224;DHT22;35050;51.316;5.994;2024-03-22T01:38:48;12.70;99.90
49224;DHT22;35050;51.316;5.994;2024-03-22T01:41:13;12.70;99.90
49224;DHT22;35050;51.316;5.994;2024-03-22T01:43:40;12.70;99.90
49224;DHT22;35050;51.316;5.994;2024-03-22T01:46:07;12.70;99.90
49224;DHT22;35050;51.316;5.994;2024-03-22T01:48:34;12.70;99.90
49224;DHT22;35050;51.316;5.994;2024-03-22T01:51:00;12.60;99.90
49224;DHT22;35050;51.316;5.994;2024-03-22T01:53:27;12.60;99.90
49224;DHT22;35050;51.316;5.994;2024-03-22T01:55:52;12.60;99.90
49224;DHT22;35050;51.316;5.994;2024-03-22T01:58:18;12.60;99.90
49224;DHT22;35050;51.316;5.994;2024-03-22T02:00:44;12.70;99.90
49224;DHT22;35050;51.316;5.994;2024-03-22T02:03:09;12.60;99.90
49224;DHT22;35050;51.316;5.994;2024-03-22T02:05:35;12.70;99.90
49224;DHT22;35050;51.316;5.994;2024-03-22T02:08:01;12.80;99.90
49224;DHT22;35050;51.316;5.994;2024-03-22T02:10:26;12.70;99.90
49224;DHT22;35050;51.316;5.994;2024-03-22T02:12:52;12.70;99.90
49224;DHT22;35050;51.316;5.994;2024-03-22T02:15:18;12.70;99.90
49224;DHT22;35050;51.316;5.994;2024-03-22T02:17:44;12.70;99.90
49224;DHT22;35050;51.316;5.994;2024-03-22T02:20:10;12.70;99.90
49224;DHT22;35050;51.316;5.994;2024-03-22T02:22:37;12.70;99.90
49224;DHT22;35050;51.316;5.994;2024-03-22T02:25:03;12.70;99.90
49224;DHT22;35050;51.316;5.994;2024-03-22T02:27:29;12.70;99.90
49224;DHT22;35050;51.316;5.994;2024-03-22T02:29:55;12.70;99.90
49224;DHT22;35050;51.316;5.994;2024-03-22T02:32:20;12.70;99.90
49224;DHT22;35050;51.316;5.994;2024-03-22T02:34:46;12.70;99.90
49224;DHT22;35050;51.316;5.994;2024-03-22T02:37:12;12.70;99.90
49224;DHT22;35050;51.316;5.994;2024-03-22T02:39:37;12.70;99.90
49224;DHT22;35050;51.316;5.994;2024-03-22T02:42:03;12.70;99.90
49224;DHT22;35050;51.316;5.994;2024-03-22T02:44:29;12.70;99.90
49224;DHT22;35050;51.316;5.994;2024-03-22T02:46:54;12.60;99.90
49224;DHT22;35050;51.316;5.994;2024-03-22T02:49:20;12.60;99.90
49224;DHT22;35050;51.316;5.994;2024-03-22T02:51:45;12.60;99.90
49224;DHT22;35050;51.316;5.994;2024-03-22T02:54:11;12.60;99.90
49224;DHT22;35050;51.316;5.994;2024-03-22T02:56:37;12.60;99.90
49224;DHT22;35050;51.316;5.994;2024-03-22T02:59:02;12.60;99.90
49224;DHT22;35050;51.316;5.994;2024-03-22T03:01:28;12.50;99.90
49224;DHT22;35050;51.316;5.994;2024-03-22T03:03:53;12.50;99.90
49224;DHT22;35050;51.316;5.994;2024-03-22T03:06:19;12.50;99.90
49224;DHT22;35050;51.316;5.994;2024-03-22T03:08:45;12.50;99.90
49224;DHT22;35050;51.316;5.994;2024-03-22T03:11:12;12.50;99.90
49224;DHT22;35050;51.316;5.994;2024-03-22T03:13:38;12.50;99.90
49224;DHT22;35050;51.316;5.994;2024-03-22T03:16:04;12.40;99.90
49224;DHT22;35050;51.316;5.994;2024-03-22T03:18:29;12.40;99.90
49224;DHT22;35050;51.316;5.994;2024-03-22T03:20:55;12.40;99.90
49224;DHT22;35050;51.316;5.994;2024-03-22T03:23:21;12.40;99.90
49224;DHT22;35050;51.316;5.994;2024-03-22T03:25:46;12.40;99.90
49224;DHT22;35050;51.316;5.994;2024-03-22T03:28:13;12.30;99.90
49224;DHT22;35050;51.316;5.994;2024-03-22T03:30:39;12.30;99.90
49224;DHT22;35050;51.316;5.994;2024-03-22T03:33:05;12.40;99.90
49224;DHT22;35050;51.316;5.994;2024-03-22T03:35:30;12.30;99.90
49224;DHT22;35050;51.316;5.994;2024-03-22T03:37:56;12.40;99.90
49224;DHT22;35050;51.316;5.994;2024-03-22T03:40:22;12.40;99.90
49224;DHT22;35050;51.316;5.994;2024-03-22T03:42:50;12.30;99.90
49224;DHT22;35050;51.316;5.994;2024-03-22T03:45:16;12.30;99.90
49224;DHT22;35050;51.316;5.994;2024-03-22T03:47:41;12.40;99.90
49224;DHT22;35050;51.316;5.994;2024-03-22T03:50:07;12.40;99.90
49224;DHT22;35050;51.316;5.994;2024-03-22T03:52:33;12.40;99.90
49224;DHT22;35050;51.316;5.994;2024-03-22T03:54:59;12.40;99.90
49224;DHT22;35050;51.316;5.994;2024-03-22T03:57:24;12.40;99.90
49224;DHT22;35050;51.316;5.994;2024-03-22T03:59:51;12.40;99.90
49224;DHT22;35050;51.316;5.994;2024-03-22T04:02:16;12.40;99.90
49224;DHT22;35050;51.316;5.994;2024-03-22T04:04:42;12.40;99.90
49224;DHT22;35050;51.316;5.994;2024-03-22T04:07:08;12.40;99.90
49224;DHT22;35050;51.316;5.994;2024-03-22T04:09:34;12.50;99.90
49224;DHT22;35050;51.316;5.994;2024-03-22T04:12:00;12.40;99.90
49224;DHT22;35050;51.316;5.994;2024-03-22T04:14:26;12.40;99.90
49224;DHT22;35050;51.316;5.994;2024-03-22T04:16:52;12.40;99.90
49224;DHT22;35050;51.316;5.994;2024-03-22T04:19:20;12.40;99.90
49224;DHT22;35050;51.316;5.994;2024-03-22T04:21:46;12.40;99.90
49224;DHT22;35050;51.316;5.994;2024-03-22T04:24:12;12.40;99.90
49224;DHT22;35050;51.316;5.994;2024-03-22T04:26:37;12.30;99.90
49224;DHT22;35050;51.316;5.994;2024-03-22T04:29:03;12.40;99.90
49224;DHT22;35050;51.316;5.994;2024-03-22T04:31:29;12.40;99.90
49224;DHT22;35050;51.316;5.994;2024-03-22T04:33:54;12.40;99.90
49224;DHT22;35050;51.316;5.994;2024-03-22T04:36:20;12.40;99.90
49224;DHT22;35050;51.316;5.994;2024-03-22T04:38:46;12.30;99.90
49224;DHT22;35050;51.316;5.994;2024-03-22T04:41:11;12.30;99.90
49224;DHT22;35050;51.316;5.994;2024-03-22T04:43:37;12.30;99.90
49224;DHT22;35050;51.316;5.994;2024-03-22T04:46:03;12.30;99.90
49224;DHT22;35050;51.316;5.994;2024-03-22T04:48:28;12.30;99.90
49224;DHT22;35050;51.316;5.994;2024-03-22T04:50:54;12.30;99.90
49224;DHT22;35050;51.316;5.994;2024-03-22T04:53:20;12.20;99.90
49224;DHT22;35050;51.316;5.994;2024-03-22T04:55:47;12.30;99.90
49224;DHT22;35050;51.316;5.994;2024-03-22T04:58:17;12.30;99.90
49224;DHT22;35050;51.316;5.994;2024-03-22T05:00:44;12.30;99.90
49224;DHT22;35050;51.316;5.994;2024-03-22T05:03:10;12.20;99.90
49224;DHT22;35050;51.316;5.994;2024-03-22T05:05:37;12.40;99.90
49224;DHT22;35050;51.316;5.994;2024-03-22T05:08:02;12.40;99.90
49224;DHT22;35050;51.316;5.994;2024-03-22T05:10:29;12.30;99.90
49224;DHT22;35050;51.316;5.994;2024-03-22T05:12:56;12.30;99.90
49224;DHT22;35050;51.316;5.994;2024-03-22T05:15:22;12.30;99.90
49224;DHT22;35050;51.316;5.994;2024-03-22T05:17:48;12.40;99.90
49224;DHT22;35050;51.316;5.994;2024-03-22T05:20:14;12.40;99.90
49224;DHT22;35050;51.316;5.994;2024-03-22T05:22:42;12.40;99.90
49224;DHT22;35050;51.316;5.994;2024-03-22T05:25:08;12.40;99.90
49224;DHT22;35050;51.316;5.994;2024-03-22T05:27:34;12.30;99.90
49224;DHT22;35050;51.316;5.994;2024-03-22T05:30:00;12.30;99.90
49224;DHT22;35050;51.316;5.994;2024-03-22T05:32:26;12.30;99.90
49224;DHT22;35050;51.316;5.994;2024-03-22T05:34:52;12.30;99.90
49224;DHT22;35050;51.316;5.994;2024-03-22T05:37:17;12.30;99.90
49224;DHT22;35050;51.316;5.994;2024-03-22T05:39:43;12.30;99.90
49224;DHT22;35050;51.316;5.994;2024-03-22T05:42:09;12.30;99.90
49224;DHT22;35050;51.316;5.994;2024-03-22T05:44:34;12.30;99.90
49224;DHT22;35050;51.316;5.994;2024-03-22T05:47:00;12.30;99.90
49224;DHT22;35050;51.316;5.994;2024-03-22T05:49:26;12.20;99.90
49224;DHT22;35050;51.316;5.994;2024-03-22T05:51:52;12.20;99.90
49224;DHT22;35050;51.316;5.994;2024-03-22T05:54:17;12.20;99.90
49224;DHT22;35050;51.316;5.994;2024-03-22T05:56:43;12.20;99.90
49224;DHT22;35050;51.316;5.994;2024-03-22T05:59:09;12.20;99.90
49224;DHT22;35050;51.316;5.994;2024-03-22T06:01:35;12.20;99.90
49224;DHT22;35050;51.316;5.994;2024-03-22T06:04:01;12.20;99.90
49224;DHT22;35050;51.316;5.994;2024-03-22T06:06:27;12.30;99.90
49224;DHT22;35050;51.316;5.994;2024-03-22T06:08:52;12.30;99.90
49224;DHT22;35050;51.316;5.994;2024-03-22T06:11:20;12.20;99.90
49224;DHT22;35050;51.316;5.994;2024-03-22T06:13:46;12.20;99.90
49224;DHT22;35050;51.316;5.994;2024-03-22T06:16:12;12.30;99.90
49224;DHT22;35050;51.316;5.994;2024-03-22T06:18:38;12.30;99.90
49224;DHT22;35050;51.316;5.994;2024-03-22T06:21:04;12.30;99.90
49224;DHT22;35050;51.316;5.994;2024-03-22T06:23:30;12.40;99.90
49224;DHT22;35050;51.316;5.994;2024-03-22T06:25:56;12.30;99.90
49224;DHT22;35050;51.316;5.994;2024-03-22T06:28:23;12.40;99.90
49224;DHT22;35050;51.316;5.994;2024-03-22T06:30:49;12.40;99.90
49224;DHT22;35050;51.316;5.994;2024-03-22T06:33:14;12.50;99.90
49224;DHT22;35050;51.316;5.994;2024-03-22T06:35:43;12.50;99.90
49224;DHT22;35050;51.316;5.994;2024-03-22T06:38:09;12.50;99.90
49224;DHT22;35050;51.316;5.994;2024-03-22T06:40:35;12.60;99.90
49224;DHT22;35050;51.316;5.994;2024-03-22T06:43:01;12.60;99.90
49224;DHT22;35050;51.316;5.994;2024-03-22T06:45:26;12.60;99.90
49224;DHT22;35050;51.316;5.994;2024-03-22T06:47:52;12.60;99.90
49224;DHT22;35050;51.316;5.994;2024-03-22T06:50:17;12.50;99.90
49224;DHT22;35050;51.316;5.994;2024-03-22T06:52:44;12.60;99.90
49224;DHT22;35050;51.316;5.994;2024-03-22T06:55:10;12.70;99.90
49224;DHT22;35050;51.316;5.994;2024-03-22T06:57:37;12.80;99.90
49224;DHT22;35050;51.316;5.994;2024-03-22T07:00:03;12.90;99.90
49224;DHT22;35050;51.316;5.994;2024-03-22T07:02:29;12.80;99.90
49224;DHT22;35050;51.316;5.994;2024-03-22T07:04:55;12.90;99.90
49224;DHT22;35050;51.316;5.994;2024-03-22T07:07:20;12.90;99.90
49224;DHT22;35050;51.316;5.994;2024-03-22T07:09:46;12.80;99.90
49224;DHT22;35050;51.316;5.994;2024-03-22T07:12:13;12.90;99.90
49224;DHT22;35050;51.316;5.994;2024-03-22T07:14:38;13.00;99.90
49224;DHT22;35050;51.316;5.994;2024-03-22T07:17:04;13.20;99.90
49224;DHT22;35050;51.316;5.994;2024-03-22T07:19:30;13.10;99.90
49224;DHT22;35050;51.316;5.994;2024-03-22T07:21:56;13.10;99.90
49224;DHT22;35050;51.316;5.994;2024-03-22T07:24:23;13.20;99.90
49224;DHT22;35050;51.316;5.994;2024-03-22T07:26:49;13.20;99.90
49224;DHT22;35050;51.316;5.994;2024-03-22T07:29:15;13.10;99.90
49224;DHT22;35050;51.316;5.994;2024-03-22T07:31:41;13.10;99.90
49224;DHT22;35050;51.316;5.994;2024-03-22T07:34:06;13.10;99.90
49224;DHT22;35050;51.316;5.994;2024-03-22T07:36:37;13.20;99.90
49224;DHT22;35050;51.316;5.994;2024-03-22T07:39:03;13.10;99.90
49224;DHT22;35050;51.316;5.994;2024-03-22T07:41:32;13.00;99.90
49224;DHT22;35050;51.316;5.994;2024-03-22T07:43:58;13.00;99.90
49224;DHT22;35050;51.316;5.994;2024-03-22T07:46:25;13.00;99.90
49224;DHT22;35050;51.316;5.994;2024-03-22T07:48:51;13.10;99.90
49224;DHT22;35050;51.316;5.994;2024-03-22T07:51:17;13.00;99.90
49224;DHT22;35050;51.316;5.994;2024-03-22T07:53:42;12.90;99.90
49224;DHT22;35050;51.316;5.994;2024-03-22T07:56:08;12.90;99.90
49224;DHT22;35050;51.316;5.994;2024-03-22T07:58:33;13.00;99.90
49224;DHT22;35050;51.316;5.994;2024-03-22T08:00:59;13.00;99.90
49224;DHT22;35050;51.316;5.994;2024-03-22T08:03:24;13.10;99.90
49224;DHT22;35050;51.316;5.994;2024-03-22T08:05:50;13.10;99.90
49224;DHT22;35050;51.316;5.994;2024-03-22T08:08:16;13.30;99.90
49224;DHT22;35050;51.316;5.994;2024-03-22T08:10:41;13.30;99.90
49224;DHT22;35050;51.316;5.994;2024-03-22T08:13:07;13.40;99.90
49224;DHT22;35050;51.316;5.994;2024-03-22T08:15:33;13.40;99.90
49224;DHT22;35050;51.316;5.994;2024-03-22T08:17:58;13.60;99.90
49224;DHT22;35050;51.316;5.994;2024-03-22T08:20:24;13.80;99.90
49224;DHT22;35050;51.316;5.994;2024-03-22T08:22:50;13.80;99.90
49224;DHT22;35050;51.316;5.994;2024-03-22T08:25:15;14.30;99.90
49224;DHT22;35050;51.316;5.994;2024-03-22T08:27:43;14.10;99.90
49224;DHT22;35050;51.316;5.994;2024-03-22T08:30:10;13.90;99.90
49224;DHT22;35050;51.316;5.994;2024-03-22T08:32:36;13.80;99.90
49224;DHT22;35050;51.316;5.994;2024-03-22T08:35:02;13.80;99.90
49224;DHT22;35050;51.316;5.994;2024-03-22T08:37:30;13.70;99.90
49224;DHT22;35050;51.316;5.994;2024-03-22T08:39:55;13.90;99.90
49224;DHT22;35050;51.316;5.994;2024-03-22T08:42:21;14.10;99.90
49224;DHT22;35050;51.316;5.994;2024-03-22T08:44:47;14.30;99.90
49224;DHT22;35050;51.316;5.994;2024-03-22T08:47:12;14.30;99.90
49224;DHT22;35050;51.316;5.994;2024-03-22T08:49:38;14.50;99.90
49224;DHT22;35050;51.316;5.994;2024-03-22T08:52:04;14.30;99.90
49224;DHT22;35050;51.316;5.994;2024-03-22T08:54:30;14.00;99.90
49224;DHT22;35050;51.316;5.994;2024-03-22T08:56:55;14.10;99.90
49224;DHT22;35050;51.316;5.994;2024-03-22T08:59:21;14.10;99.90
49224;DHT22;35050;51.316;5.994;2024-03-22T09:01:50;14.20;99.90
49224;DHT22;35050;51.316;5.994;2024-03-22T09:04:16;14.20;99.90
49224;DHT22;35050;51.316;5.994;2024-03-22T09:06:41;14.10;99.90
49224;DHT22;35050;51.316;5.994;2024-03-22T09:09:07;14.10;99.90
49224;DHT22;35050;51.316;5.994;2024-03-22T09:11:33;13.90;99.90
49224;DHT22;35050;51.316;5.994;2024-03-22T09:13:59;14.10;99.90
49224;DHT22;35050;51.316;5.994;2024-03-22T09:16:24;14.10;99.90
49224;DHT22;35050;51.316;5.994;2024-03-22T09:18:50;14.00;99.90
49224;DHT22;35050;51.316;5.994;2024-03-22T09:21:16;13.90;99.90
49224;DHT22;35050;51.316;5.994;2024-03-22T09:23:42;14.10;99.90
49224;DHT22;35050;51.316;5.994;2024-03-22T09:26:07;14.20;99.90
49224;DHT22;35050;51.316;5.994;2024-03-22T09:28:33;14.30;99.90
49224;DHT22;35050;51.316;5.994;2024-03-22T09:31:03;14.20;99.90
49224;DHT22;35050;51.316;5.994;2024-03-22T09:33:29;14.50;99.90
49224;DHT22;35050;51.316;5.994;2024-03-22T09:35:55;14.40;99.90
49224;DHT22;35050;51.316;5.994;2024-03-22T09:38:20;14.30;99.90
49224;DHT22;35050;51.316;5.994;2024-03-22T09:40:46;14.30;99.90
49224;DHT22;35050;51.316;5.994;2024-03-22T09:43:12;14.40;99.90
49224;DHT22;35050;51.316;5.994;2024-03-22T09:45:41;14.40;99.90
49224;DHT22;35050;51.316;5.994;2024-03-22T09:48:07;14.40;99.90
49224;DHT22;35050;51.316;5.994;2024-03-22T09:50:32;14.40;99.90
49224;DHT22;35050;51.316;5.994;2024-03-22T09:52:58;14.30;99.90
49224;DHT22;35050;51.316;5.994;2024-03-22T09:55:24;14.30;99.90
49224;DHT22;35050;51.316;5.994;2024-03-22T09:57:50;14.20;99.90
49224;DHT22;35050;51.316;5.994;2024-03-22T10:00:18;14.40;99.90
49224;DHT22;35050;51.316;5.994;2024-03-22T10:02:46;14.30;99.90
49224;DHT22;35050;51.316;5.994;2024-03-22T10:05:12;14.40;99.90
49224;DHT22;35050;51.316;5.994;2024-03-22T10:07:37;14.20;99.90
49224;DHT22;35050;51.316;5.994;2024-03-22T10:10:03;14.20;99.90
49224;DHT22;35050;51.316;5.994;2024-03-22T10:12:29;14.30;99.90
49224;DHT22;35050;51.316;5.994;2024-03-22T10:14:55;14.10;99.90
49224;DHT22;35050;51.316;5.994;2024-03-22T10:17:21;14.30;99.90
49224;DHT22;35050;51.316;5.994;2024-03-22T10:19:48;14.10;99.90
49224;DHT22;35050;51.316;5.994;2024-03-22T10:22:16;14.30;99.90
49224;DHT22;35050;51.316;5.994;2024-03-22T10:24:42;14.30;99.90
49224;DHT22;35050;51.316;5.994;2024-03-22T10:27:09;14.30;99.90
49224;DHT22;35050;51.316;5.994;2024-03-22T10:29:35;14.30;99.90
49224;DHT22;35050;51.316;5.994;2024-03-22T10:32:01;14.30;99.90
49224;DHT22;35050;51.316;5.994;2024-03-22T10:34:27;14.20;99.90
49224;DHT22;35050;51.316;5.994;2024-03-22T10:36:55;14.50;99.90
49224;DHT22;35050;51.316;5.994;2024-03-22T10:39:23;14.30;99.90
49224;DHT22;35050;51.316;5.994;2024-03-22T10:41:49;14.30;99.90
49224;DHT22;35050;51.316;5.994;2024-03-22T10:44:16;14.20;99.90
49224;DHT22;35050;51.316;5.994;2024-03-22T10:46:44;14.10;99.90
49224;DHT22;35050;51.316;5.994;2024-03-22T10:49:16;14.10;99.90
49224;DHT22;35050;51.316;5.994;2024-03-22T10:51:52;14.40;99.90
49224;DHT22;35050;51.316;5.994;2024-03-22T10:54:22;14.30;99.90
49224;DHT22;35050;51.316;5.994;2024-03-22T10:56:50;14.40;99.90
49224;DHT22;35050;51.316;5.994;2024-03-22T10:59:19;14.10;99.90
49224;DHT22;35050;51.316;5.994;2024-03-22T11:01:46;14.00;99.90
49224;DHT22;35050;51.316;5.994;2024-03-22T11:04:14;14.10;99.90
49224;DHT22;35050;51.316;5.994;2024-03-22T11:06:40;14.10;99.90
49224;DHT22;35050;51.316;5.994;2024-03-22T11:09:08;14.10;99.90
49224;DHT22;35050;51.316;5.994;2024-03-22T11:11:35;13.90;99.90
49224;DHT22;35050;51.316;5.994;2024-03-22T11:14:04;13.80;99.90
49224;DHT22;35050;51.316;5.994;2024-03-22T11:16:30;13.90;99.90
49224;DHT22;35050;51.316;5.994;2024-03-22T11:18:55;13.70;99.90
49224;DHT22;35050;51.316;5.994;2024-03-22T11:21:21;13.90;99.90
49224;DHT22;35050;51.316;5.994;2024-03-22T11:23:47;13.90;99.90
49224;DHT22;35050;51.316;5.994;2024-03-22T11:26:13;13.70;99.90
49224;DHT22;35050;51.316;5.994;2024-03-22T11:28:39;13.80;99.90
49224;DHT22;35050;51.316;5.994;2024-03-22T11:31:05;13.80;99.90
49224;DHT22;35050;51.316;5.994;2024-03-22T11:33:31;13.60;99.90
49224;DHT22;35050;51.316;5.994;2024-03-22T11:36:02;13.50;99.90
49224;DHT22;35050;51.316;5.994;2024-03-22T11:38:27;13.50;99.90
49224;DHT22;35050;51.316;5.994;2024-03-22T11:40:56;13.70;99.90
49224;DHT22;35050;51.316;5.994;2024-03-22T11:43:23;13.80;99.90
49224;DHT22;35050;51.316;5.994;2024-03-22T11:45:48;13.60;99.90
49224;DHT22;35050;51.316;5.994;2024-03-22T11:48:14;13.50;99.90
49224;DHT22;35050;51.316;5.994;2024-03-22T11:50:40;13.50;99.90
49224;DHT22;35050;51.316;5.994;2024-03-22T11:53:06;13.50;99.90
49224;DHT22;35050;51.316;5.994;2024-03-22T11:55:32;13.50;99.90
49224;DHT22;35050;51.316;5.994;2024-03-22T11:57:58;13.50;99.90
49224;DHT22;35050;51.316;5.994;2024-03-22T12:00:24;13.50;99.90
49224;DHT22;35050;51.316;5.994;2024-03-22T12:02:51;13.40;99.90
49224;DHT22;35050;51.316;5.994;2024-03-22T12:05:23;13.40;99.90
49224;DHT22;35050;51.316;5.994;2024-03-22T12:07:51;13.40;99.90
49224;DHT22;35050;51.316;5.994;2024-03-22T12:10:17;13.40;99.90
49224;DHT22;35050;51.316;5.994;2024-03-22T12:12:43;13.30;99.90
49224;DHT22;35050;51.316;5.994;2024-03-22T12:15:08;13.20;99.90
49224;DHT22;35050;51.316;5.994;2024-03-22T12:17:34;13.30;99.90
49224;DHT22;35050;51.316;5.994;2024-03-22T12:20:02;13.40;99.90
49224;DHT22;35050;51.316;5.994;2024-03-22T12:22:29;13.30;99.90
49224;DHT22;35050;51.316;5.994;2024-03-22T12:24:55;13.30;99.90
49224;DHT22;35050;51.316;5.994;2024-03-22T12:27:21;13.20;99.90
49224;DHT22;35050;51.316;5.994;2024-03-22T12:29:46;13.30;99.90
49224;DHT22;35050;51.316;5.994;2024-03-22T12:32:12;13.30;99.90
49224;DHT22;35050;51.316;5.994;2024-03-22T12:34:38;13.40;99.90
49224;DHT22;35050;51.316;5.994;2024-03-22T12:37:03;13.30;99.90
49224;DHT22;35050;51.316;5.994;2024-03-22T12:39:29;13.20;99.90
49224;DHT22;35050;51.316;5.994;2024-03-22T12:41:55;13.30;99.90
49224;DHT22;35050;51.316;5.994;2024-03-22T12:44:21;13.60;99.90
49224;DHT22;35050;51.316;5.994;2024-03-22T12:46:47;13.50;99.90
49224;DHT22;35050;51.316;5.994;2024-03-22T12:49:13;13.50;99.90
49224;DHT22;35050;51.316;5.994;2024-03-22T12:51:38;13.70;99.90
49224;DHT22;35050;51.316;5.994;2024-03-22T12:54:05;13.50;99.90
49224;DHT22;35050;51.316;5.994;2024-03-22T12:56:30;13.30;99.90
49224;DHT22;35050;51.316;5.994;2024-03-22T12:58:56;13.30;99.90
49224;DHT22;35050;51.316;5.994;2024-03-22T13:01:22;13.20;99.90
49224;DHT22;35050;51.316;5.994;2024-03-22T13:03:47;13.20;99.90
49224;DHT22;35050;51.316;5.994;2024-03-22T13:06:13;13.30;99.90
49224;DHT22;35050;51.316;5.994;2024-03-22T13:08:39;13.30;99.90
49224;DHT22;35050;51.316;5.994;2024-03-22T13:11:05;13.30;99.90
49224;DHT22;35050;51.316;5.994;2024-03-22T13:13:33;13.20;99.90
49224;DHT22;35050;51.316;5.994;2024-03-22T13:15:59;13.20;99.90
49224;DHT22;35050;51.316;5.994;2024-03-22T13:18:28;13.10;99.90
49224;DHT22;35050;51.316;5.994;2024-03-22T13:20:53;13.20;99.90
49224;DHT22;35050;51.316;5.994;2024-03-22T13:23:20;13.20;99.90
49224;DHT22;35050;51.316;5.994;2024-03-22T13:25:45;13.10;99.90
49224;DHT22;35050;51.316;5.994;2024-03-22T13:28:11;13.20;99.90
49224;DHT22;35050;51.316;5.994;2024-03-22T13:30:37;13.30;99.90
49224;DHT22;35050;51.316;5.994;2024-03-22T13:33:03;13.30;99.90
49224;DHT22;35050;51.316;5.994;2024-03-22T13:35:29;13.10;99.90
49224;DHT22;35050;51.316;5.994;2024-03-22T13:37:54;13.10;99.90
49224;DHT22;35050;51.316;5.994;2024-03-22T13:40:20;13.10;99.90
49224;DHT22;35050;51.316;5.994;2024-03-22T13:42:46;13.20;99.90
49224;DHT22;35050;51.316;5.994;2024-03-22T13:45:12;13.20;99.90
49224;DHT22;35050;51.316;5.994;2024-03-22T13:47:38;13.20;99.90
49224;DHT22;35050;51.316;5.994;2024-03-22T13:50:08;13.20;99.90
49224;DHT22;35050;51.316;5.994;2024-03-22T13:52:34;13.20;99.90
49224;DHT22;35050;51.316;5.994;2024-03-22T13:55:01;13.10;99.90
49224;DHT22;35050;51.316;5.994;2024-03-22T13:57:27;13.10;99.90
49224;DHT22;35050;51.316;5.994;2024-03-22T13:59:53;13.10;99.90
49224;DHT22;35050;51.316;5.994;2024-03-22T14:02:19;12.90;99.90
49224;DHT22;35050;51.316;5.994;2024-03-22T14:04:45;12.90;99.90
49224;DHT22;35050;51.316;5.994;2024-03-22T14:07:11;12.90;99.90
49224;DHT22;35050;51.316;5.994;2024-03-22T14:09:36;12.90;99.90
49224;DHT22;35050;51.316;5.994;2024-03-22T14:12:02;12.90;99.90
49224;DHT22;35050;51.316;5.994;2024-03-22T14:14:28;12.60;99.90
49224;DHT22;35050;51.316;5.994;2024-03-22T14:16:54;12.80;99.90
49224;DHT22;35050;51.316;5.994;2024-03-22T14:19:20;12.70;99.90
49224;DHT22;35050;51.316;5.994;2024-03-22T14:21:46;12.70;99.90
49224;DHT22;35050;51.316;5.994;2024-03-22T14:24:12;12.50;99.90
49224;DHT22;35050;51.316;5.994;2024-03-22T14:26:38;12.50;99.90
49224;DHT22;35050;51.316;5.994;2024-03-22T14:29:10;12.50;99.90
49224;DHT22;35050;51.316;5.994;2024-03-22T14:31:36;12.60;99.90
49224;DHT22;35050;51.316;5.994;2024-03-22T14:34:02;12.60;99.90
49224;DHT22;35050;51.316;5.994;2024-03-22T14:36:27;12.80;99.90
49224;DHT22;35050;51.316;5.994;2024-03-22T14:38:53;12.70;99.90
49224;DHT22;35050;51.316;5.994;2024-03-22T14:41:18;12.60;99.90
49224;DHT22;35050;51.316;5.994;2024-03-22T14:43:44;12.40;99.90
49224;DHT22;35050;51.316;5.994;2024-03-22T14:46:10;12.50;99.90
49224;DHT22;35050;51.316;5.994;2024-03-22T14:48:35;12.40;99.90
49224;DHT22;35050;51.316;5.994;2024-03-22T14:51:01;12.50;99.90
49224;DHT22;35050;51.316;5.994;2024-03-22T14:53:26;12.40;99.90
49224;DHT22;35050;51.316;5.994;2024-03-22T14:55:57;12.40;99.90
49224;DHT22;35050;51.316;5.994;2024-03-22T14:58:29;12.40;99.90
49224;DHT22;35050;51.316;5.994;2024-03-22T15:00:56;12.30;99.90
49224;DHT22;35050;51.316;5.994;2024-03-22T15:03:23;12.40;99.90
49224;DHT22;35050;51.316;5.994;2024-03-22T15:05:53;12.30;99.90
49224;DHT22;35050;51.316;5.994;2024-03-22T15:08:19;12.30;99.90
49224;DHT22;35050;51.316;5.994;2024-03-22T15:10:44;12.20;99.90
49224;DHT22;35050;51.316;5.994;2024-03-22T15:13:11;12.30;99.90
49224;DHT22;35050;51.316;5.994;2024-03-22T15:15:36;12.50;99.90
49224;DHT22;35050;51.316;5.994;2024-03-22T15:18:03;12.50;99.90
49224;DHT22;35050;51.316;5.994;2024-03-22T15:20:31;12.40;99.90
49224;DHT22;35050;51.316;5.994;2024-03-22T15:22:56;12.50;99.90